Time;durP1;ratioP1;P1;durP2;ratioP2;P2;SDS_P1;SDS_P2;PMS_P1;PMS_P2;Temp;Humidity;BMP_temperature;BMP_pressure;BME280_temperature;BME280_humidity;BME280_pressure;Samples;Min_cycle;Max_cycle;Signal;HPM_P1;HPM_P2
2022/04/01 00:01:03;;;;;;;4.88;3.70;;;;;;;7.45;54.71;100162.19;5058001;28;20077;-58
2022/04/01 00:03:31;;;;;;;5.05;3.70;;;;;;;7.42;54.67;100160.75;5061721;28;20425;-58
2022/04/01 00:05:59;;;;;;;6.35;3.80;;;;;;;7.36;54.36;100150.94;5052233;28;20049;-59
2022/04/01 00:08:27;;;;;;;4.32;3.60;;;;;;;7.31;54.63;100155.28;5059677;28;20112;-60
2022/04/01 00:10:54;;;;;;;4.57;3.45;;;;;;;7.28;54.88;100163.75;5053439;28;20083;-59
2022/04/01 00:13:22;;;;;;;4.03;3.28;;;;;;;7.28;54.76;100161.06;5045449;28;20046;-60
2022/04/01 00:15:52;;;;;;;4.40;3.35;;;;;;;7.27;55.15;100162.13;5057559;28;20100;-60
2022/04/01 00:18:20;;;;;;;5.10;3.47;;;;;;;7.21;54.75;100162.97;5063633;28;20057;-58
2022/04/01 00:20:47;;;;;;;6.45;3.13;;;;;;;7.19;54.93;100177.38;5058632;28;20069;-58
2022/04/01 00:23:15;;;;;;;5.63;3.65;;;;;;;7.07;55.07;100163.06;5065251;28;20076;-58
2022/04/01 00:25:43;;;;;;;5.38;2.88;;;;;;;7.14;55.18;100171.03;5063889;28;20501;-59
2022/04/01 00:28:11;;;;;;;3.60;2.63;;;;;;;7.18;54.87;100173.06;5062535;28;20076;-59
2022/04/01 00:30:40;;;;;;;7.93;3.20;;;;;;;7.16;54.92;100176.97;5064004;28;20052;-59
2022/04/01 00:33:16;;;;;;;3.42;2.60;;;;;;;7.14;55.03;100182.53;5063295;28;20117;-59
2022/04/01 00:35:43;;;;;;;4.78;3.03;;;;;;;7.11;54.64;100182.97;5060802;28;20462;-58
2022/04/01 00:38:11;;;;;;;4.95;2.88;;;;;;;7.12;55.03;100183.78;5063541;28;20049;-59
2022/04/01 00:40:40;;;;;;;3.63;2.50;;;;;;;7.12;55.06;100187.28;5063438;28;20458;-58
2022/04/01 00:43:08;;;;;;;3.30;2.42;;;;;;;7.09;55.06;100187.72;5064438;28;20072;-58
2022/04/01 00:45:36;;;;;;;4.00;2.70;;;;;;;7.05;54.93;100191.03;5065222;28;20517;-58
2022/04/01 00:48:05;;;;;;;7.25;2.45;;;;;;;7.00;54.87;100197.03;5066515;28;20080;-59
2022/04/01 00:50:34;;;;;;;4.40;2.55;;;;;;;7.00;54.91;100196.19;5062373;28;20351;-60
2022/04/01 00:53:02;;;;;;;3.85;2.50;;;;;;;6.94;55.28;100200.53;5057174;28;20075;-60
2022/04/01 00:55:30;;;;;;;3.53;2.63;;;;;;;6.90;55.13;100201.22;5064608;28;20083;-59
2022/04/01 00:57:58;;;;;;;4.18;2.33;;;;;;;6.89;55.49;100203.06;5063894;28;20083;-59
2022/04/01 01:00:28;;;;;;;3.33;2.30;;;;;;;6.85;55.47;100202.69;5061016;28;20084;-59
2022/04/01 01:02:57;;;;;;;2.28;1.95;;;;;;;6.82;55.57;100205.78;5062980;28;20057;-59
2022/04/01 01:05:25;;;;;;;3.90;2.42;;;;;;;6.79;55.18;100200.03;5063016;28;20104;-59
2022/04/01 01:07:55;;;;;;;3.03;2.25;;;;;;;6.67;55.32;100189.22;5054012;28;20087;-59
2022/04/01 01:10:23;;;;;;;4.03;2.72;;;;;;;6.74;55.53;100203.34;5061276;28;20052;-59
2022/04/01 01:12:51;;;;;;;3.08;2.20;;;;;;;6.71;55.56;100206.44;5056431;28;20077;-59
2022/04/01 01:15:20;;;;;;;2.85;2.38;;;;;;;6.68;55.32;100203.38;5060794;28;20054;-59
2022/04/01 01:17:49;;;;;;;3.50;2.33;;;;;;;6.66;55.24;100218.78;5046083;28;20073;-59
2022/04/01 01:20:17;;;;;;;3.20;2.15;;;;;;;6.63;55.66;100209.34;5063697;28;20055;-59
2022/04/01 01:22:48;;;;;;;2.83;2.03;;;;;;;6.63;55.70;100213.88;5060194;28;20097;-59
2022/04/01 01:25:17;;;;;;;2.97;1.90;;;;;;;6.60;55.43;100212.44;5055340;28;20064;-59
2022/04/01 01:27:45;;;;;;;2.83;2.25;;;;;;;6.60;55.74;100208.94;5059290;28;20620;-58
2022/04/01 01:30:13;;;;;;;3.22;2.35;;;;;;;6.58;55.75;100209.16;5064805;28;20049;-59
2022/04/01 01:32:41;;;;;;;3.08;2.00;;;;;;;6.59;55.89;100208.13;5055187;28;20499;-58
2022/04/01 01:35:10;;;;;;;3.05;2.05;;;;;;;6.63;55.08;100212.03;5060988;28;20080;-60
2022/04/01 01:37:38;;;;;;;3.97;2.10;;;;;;;6.64;55.53;100211.00;5059548;28;20095;-59
2022/04/01 01:40:08;;;;;;;3.67;1.90;;;;;;;6.65;55.50;100209.97;5064212;28;20049;-59
2022/04/01 01:42:37;;;;;;;3.78;2.45;;;;;;;6.63;55.55;100214.69;5061547;28;20083;-59
2022/04/01 01:45:07;;;;;;;2.45;1.92;;;;;;;6.60;55.15;100217.78;5056967;28;20053;-59
2022/04/01 01:47:35;;;;;;;2.90;1.83;;;;;;;6.58;55.50;100214.50;5063053;28;20080;-59
2022/04/01 01:55:33;;;;;;;5.32;2.08;;;;;;;6.57;55.68;100223.53;5063000;28;20080;-58
2022/04/01 01:58:03;;;;;;;4.28;2.17;;;;;;;6.55;55.70;100220.25;5064185;28;20462;-59
2022/04/01 02:00:31;;;;;;;3.05;1.88;;;;;;;6.53;55.88;100219.66;5062188;28;20056;-59
2022/04/01 02:02:58;;;;;;;3.30;2.08;;;;;;;6.50;55.57;100222.75;5066224;28;20045;-59
2022/04/01 02:05:26;;;;;;;2.88;2.05;;;;;;;6.50;55.68;100222.75;5061288;28;20139;-59
2022/04/01 02:07:54;;;;;;;3.47;1.70;;;;;;;6.47;55.67;100229.31;5055986;28;20046;-60
2022/04/01 02:10:22;;;;;;;2.80;2.00;;;;;;;6.45;56.02;100235.91;5061599;28;20072;-59
2022/04/01 02:12:49;;;;;;;3.50;1.75;;;;;;;6.43;55.66;100241.44;5062477;28;20111;-59
2022/04/01 02:15:20;;;;;;;5.22;1.90;;;;;;;6.41;55.74;100227.50;5063391;28;20087;-59
2022/04/01 02:17:49;;;;;;;3.53;2.30;;;;;;;6.41;55.97;100234.69;5060958;28;20045;-60
2022/04/01 02:20:17;;;;;;;3.08;2.00;;;;;;;6.37;56.01;100231.63;5056869;28;20049;-59
2022/04/01 02:22:45;;;;;;;2.53;1.90;;;;;;;6.36;56.13;100231.81;5054339;28;20079;-59
2022/04/01 02:25:13;;;;;;;2.58;1.60;;;;;;;6.41;55.58;100240.03;5063397;28;20076;-60
2022/04/01 02:27:42;;;;;;;3.80;2.40;;;;;;;6.37;55.93;100244.13;5062816;28;20077;-60
2022/04/01 02:30:11;;;;;;;2.60;1.67;;;;;;;6.31;55.92;100243.13;5069790;28;20056;-60
2022/04/01 02:32:41;;;;;;;2.90;2.08;;;;;;;6.30;56.33;100254.00;5061988;28;20085;-60
2022/04/01 02:35:11;;;;;;;3.25;2.08;;;;;;;6.27;56.37;100246.41;5063693;28;20084;-59
2022/04/01 02:37:39;;;;;;;4.53;1.95;;;;;;;6.24;56.34;100255.66;5058313;28;20079;-60
2022/04/01 02:40:09;;;;;;;2.30;1.65;;;;;;;6.23;56.65;100256.69;5054872;28;20590;-59
2022/04/01 02:42:37;;;;;;;3.20;1.95;;;;;;;6.23;56.15;100259.34;5062446;28;20068;-59
2022/04/01 02:45:05;;;;;;;4.85;2.00;;;;;;;6.28;56.07;100264.88;5059526;28;20056;-58
2022/04/01 02:47:33;;;;;;;3.25;1.90;;;;;;;6.30;56.12;100267.34;5061072;28;20052;-59
2022/04/01 02:50:04;;;;;;;2.55;1.90;;;;;;;6.28;56.09;100274.75;5057417;28;20071;-59
2022/04/01 02:52:32;;;;;;;2.15;1.67;;;;;;;6.26;56.14;100277.63;5054101;28;20461;-59
2022/04/01 02:55:00;;;;;;;1.55;1.35;;;;;;;6.25;56.08;100283.16;5063739;28;20053;-60
2022/04/01 02:57:28;;;;;;;2.47;2.10;;;;;;;6.23;56.27;100278.03;5051610;28;20121;-59
2022/04/01 02:59:55;;;;;;;5.43;2.10;;;;;;;6.21;56.07;100293.44;5056134;28;20183;-59
2022/04/01 03:02:23;;;;;;;2.03;1.80;;;;;;;6.17;55.98;100290.34;5061030;28;20072;-59
2022/04/01 03:04:51;;;;;;;2.30;1.65;;;;;;;6.16;56.26;100285.22;5063370;28;20061;-59
2022/04/01 03:07:21;;;;;;;5.03;1.80;;;;;;;6.17;56.40;100285.03;5056789;28;20040;-58
2022/04/01 03:09:49;;;;;;;2.42;2.13;;;;;;;6.17;56.33;100290.34;5061171;28;20048;-60
2022/04/01 03:12:16;;;;;;;2.47;1.70;;;;;;;6.19;56.14;100298.97;5062170;28;20077;-60
2022/04/01 03:14:44;;;;;;;3.13;1.90;;;;;;;6.17;56.30;100293.03;5063374;28;20084;-60
2022/04/01 03:17:12;;;;;;;2.50;1.70;;;;;;;6.20;55.98;100299.78;5060993;28;20087;-60
2022/04/01 03:19:40;;;;;;;2.38;1.95;;;;;;;6.16;55.82;100296.72;5055877;28;20084;-59
2022/04/01 03:22:08;;;;;;;2.20;1.90;;;;;;;6.16;56.35;100303.91;5063275;28;20049;-59
2022/04/01 03:24:39;;;;;;;3.83;2.45;;;;;;;6.17;56.01;100303.69;5062583;28;20391;-59
2022/04/01 03:27:06;;;;;;;2.20;1.70;;;;;;;6.11;55.86;100301.84;5062095;28;20563;-60
2022/04/01 03:29:34;;;;;;;2.45;2.03;;;;;;;6.08;56.00;100304.94;5062535;28;20080;-58
2022/04/01 03:32:02;;;;;;;2.88;2.05;;;;;;;6.05;56.37;100302.66;5063428;28;20079;-59
2022/04/01 03:34:32;;;;;;;2.63;1.98;;;;;;;6.00;56.37;100305.13;5063275;28;20087;-60
2022/04/01 03:36:59;;;;;;;2.92;1.92;;;;;;;6.03;56.41;100312.72;5061846;28;20045;-59
2022/04/01 03:39:27;;;;;;;2.03;1.63;;;;;;;6.02;56.18;100307.59;5055605;28;20083;-59
2022/04/01 03:41:56;;;;;;;2.40;1.80;;;;;;;5.99;56.16;100316.00;5062281;28;20079;-60
2022/04/01 03:44:25;;;;;;;2.75;1.90;;;;;;;6.01;56.05;100317.44;5061018;28;20182;-59
2022/04/01 03:47:03;;;;;;;4.05;1.90;;;;;;;6.03;56.19;100325.25;5056606;28;20072;-58
2022/04/01 03:49:33;;;;;;;2.88;1.95;;;;;;;6.00;56.31;100313.13;5052417;28;20060;-58
2022/04/01 03:52:01;;;;;;;2.13;1.67;;;;;;;6.05;56.10;100325.84;5061438;28;20084;-58
2022/04/01 03:54:31;;;;;;;3.35;2.15;;;;;;;6.03;55.79;100327.91;5060716;28;20112;-60
2022/04/01 03:57:01;;;;;;;3.13;1.90;;;;;;;6.01;56.28;100317.44;5059921;28;20080;-59
2022/04/01 03:59:40;;;;;;;2.72;1.85;;;;;;;5.99;56.35;100314.16;5061997;28;20084;-58
2022/04/01 04:02:12;;;;;;;3.55;2.25;;;;;;;5.98;56.01;100336.53;5050426;28;20045;-59
2022/04/01 04:04:40;;;;;;;3.30;2.20;;;;;;;5.99;56.08;100332.00;5059733;28;20079;-58
2022/04/01 04:07:09;;;;;;;3.00;2.13;;;;;;;6.01;56.16;100345.97;5071274;28;20378;-59
2022/04/01 04:09:39;;;;;;;2.70;2.00;;;;;;;6.04;56.07;100340.22;5057390;28;20045;-59
2022/04/01 04:12:12;;;;;;;2.83;2.22;;;;;;;6.02;56.28;100347.59;5062768;28;20087;-59
2022/04/01 04:14:41;;;;;;;3.03;2.22;;;;;;;6.02;56.42;100356.44;5060080;28;20045;-59
2022/04/01 04:17:14;;;;;;;3.05;2.30;;;;;;;6.01;56.20;100351.31;5061853;28;20037;-60
2022/04/01 04:19:50;;;;;;;3.47;2.17;;;;;;;6.00;55.81;100357.66;5056089;28;20068;-59
2022/04/01 04:22:23;;;;;;;3.17;2.25;;;;;;;6.00;56.05;100366.47;5056092;28;20045;-60
2022/04/01 04:24:55;;;;;;;3.80;2.30;;;;;;;6.01;56.19;100361.97;5049664;28;20088;-59
2022/04/01 04:27:27;;;;;;;3.63;2.33;;;;;;;5.99;56.02;100377.34;5056269;28;20049;-60
2022/04/01 04:30:05;;;;;;;5.72;2.78;;;;;;;5.95;56.17;100378.78;5067374;28;20049;-59
2022/04/01 04:32:35;;;;;;;3.08;2.13;;;;;;;5.91;56.67;100378.38;5058275;28;20064;-59
2022/04/01 04:35:06;;;;;;;3.30;2.38;;;;;;;5.91;56.64;100381.03;5054660;28;20483;-58
2022/04/01 04:37:36;;;;;;;3.17;2.40;;;;;;;5.91;56.43;100389.03;5062705;28;20081;-59
2022/04/01 04:40:05;;;;;;;6.35;2.42;;;;;;;5.93;56.51;100388.84;5061235;28;20516;-58
2022/04/01 04:42:34;;;;;;;5.22;2.13;;;;;;;5.93;56.13;100391.50;5049858;28;20387;-59
2022/04/01 04:45:04;;;;;;;3.47;2.50;;;;;;;5.88;56.43;100400.06;5066348;28;20057;-58
2022/04/01 04:47:34;;;;;;;2.65;2.13;;;;;;;5.87;56.51;100404.59;5058844;28;20057;-59
2022/04/01 04:50:02;;;;;;;2.88;2.45;;;;;;;5.91;56.28;100414.88;5052455;28;20060;-61
2022/04/01 04:52:32;;;;;;;3.50;2.20;;;;;;;5.90;56.30;100413.25;5055274;28;20049;-58
2022/04/01 04:55:01;;;;;;;3.30;2.60;;;;;;;5.84;56.34;100414.84;5063689;28;20127;-59
2022/04/01 04:57:29;;;;;;;6.18;2.38;;;;;;;5.81;56.54;100415.25;5070213;28;20052;-59
2022/04/01 05:00:00;;;;;;;5.40;2.65;;;;;;;5.79;56.68;100427.94;5060244;28;20133;-59
2022/04/01 05:02:42;;;;;;;4.93;2.50;;;;;;;5.76;56.79;100433.69;5054451;28;20113;-59
2022/04/01 05:05:18;;;;;;;2.97;2.10;;;;;;;5.65;56.43;100429.75;5052066;28;20092;-59
2022/04/01 05:08:01;;;;;;;4.00;2.42;;;;;;;5.65;57.07;100440.41;5061880;28;20149;-60
2022/04/01 05:10:37;;;;;;;4.40;2.47;;;;;;;5.64;56.46;100445.94;5065323;28;20053;-59
2022/04/01 05:13:11;;;;;;;2.95;2.42;;;;;;;5.62;56.51;100448.00;5059846;28;20080;-58
2022/04/01 05:15:42;;;;;;;6.28;2.45;;;;;;;5.68;56.50;100455.19;5061889;28;20049;-59
2022/04/01 05:18:12;;;;;;;4.70;2.38;;;;;;;5.67;56.57;100451.69;5053216;28;20076;-59
2022/04/01 05:20:52;;;;;;;4.07;2.75;;;;;;;5.73;56.16;100458.91;5065281;28;20056;-59
2022/04/01 05:23:33;;;;;;;4.60;2.55;;;;;;;5.75;55.94;100464.84;5072333;28;20064;-59
2022/04/01 05:26:10;;;;;;;4.32;2.75;;;;;;;5.73;55.92;100469.56;5064228;28;20608;-59
2022/04/01 05:28:47;;;;;;;5.60;2.38;;;;;;;5.71;56.23;100473.47;5054918;28;20109;-59
2022/04/01 05:31:20;;;;;;;5.38;2.78;;;;;;;5.71;56.26;100478.78;5059668;28;20064;-58
2022/04/01 05:33:55;;;;;;;4.20;2.60;;;;;;;5.75;55.86;100474.69;5063288;28;20049;-58
2022/04/01 05:36:24;;;;;;;3.47;2.47;;;;;;;5.86;55.68;100477.63;5064088;28;20084;-60
2022/04/01 05:38:54;;;;;;;4.32;2.90;;;;;;;6.13;54.72;100483.88;5063035;28;20064;-59
2022/04/01 05:41:22;;;;;;;3.80;2.80;;;;;;;6.33;54.43;100478.59;5061280;28;20080;-60
2022/04/01 05:43:50;;;;;;;4.95;3.10;;;;;;;6.29;54.20;100489.88;5062591;28;20121;-60
2022/04/01 05:46:22;;;;;;;5.18;2.90;;;;;;;6.36;54.10;100493.38;5061474;28;20092;-60
2022/04/01 05:48:51;;;;;;;3.15;2.35;;;;;;;6.49;53.41;100496.06;5059758;28;20203;-59
2022/04/01 05:51:19;;;;;;;4.60;2.72;;;;;;;6.34;53.57;100498.09;5070912;28;20048;-59
2022/04/01 05:53:48;;;;;;;4.30;2.80;;;;;;;6.52;53.59;100506.31;5064488;28;20041;-59
2022/04/01 05:56:16;;;;;;;3.95;2.80;;;;;;;6.42;53.67;100514.72;5055495;28;20048;-60
2022/04/01 05:58:45;;;;;;;4.30;2.80;;;;;;;6.34;54.03;100517.59;5063794;28;20063;-59
2022/04/01 06:01:19;;;;;;;7.50;3.10;;;;;;;6.21;54.12;100525.56;5055136;28;20089;-60
2022/04/01 06:04:22;;;;;;;4.40;3.38;;;;;;;6.07;54.75;100532.69;5063803;28;20478;-60
2022/04/01 06:06:51;;;;;;;4.28;3.03;;;;;;;6.04;54.95;100542.94;5045419;28;20100;-60
2022/04/01 06:09:34;;;;;;;7.75;3.90;;;;;;;5.94;54.31;100551.31;4709630;28;9999928;-60
2022/04/01 06:12:14;;;;;;;4.78;3.35;;;;;;;5.92;54.76;100555.22;5058949;28;20052;-61
2022/04/01 06:14:50;;;;;;;3.67;2.70;;;;;;;5.86;54.90;100556.78;5059717;28;20084;-61
2022/04/01 06:17:24;;;;;;;4.80;2.50;;;;;;;5.80;55.17;100561.06;5059765;28;20079;-60
2022/04/01 06:19:58;;;;;;;4.57;3.20;;;;;;;5.77;55.09;100568.66;5058179;28;20072;-60
2022/04/01 06:22:33;;;;;;;4.80;2.78;;;;;;;5.73;55.36;100567.41;5059230;28;20088;-60
2022/04/01 06:25:06;;;;;;;8.52;2.80;;;;;;;5.66;54.89;100566.53;5057022;28;20056;-60
2022/04/01 06:27:44;;;;;;;3.85;2.55;;;;;;;5.56;55.65;100566.88;5056169;28;20095;-60
2022/04/01 06:30:14;;;;;;;4.20;2.83;;;;;;;5.47;55.65;100571.56;5057935;28;20072;-61
2022/04/01 06:32:53;;;;;;;4.72;3.08;;;;;;;5.44;55.43;100571.94;5047788;28;20050;-60
2022/04/01 06:35:28;;;;;;;3.80;2.95;;;;;;;5.41;55.85;100593.66;5059911;28;20084;-59
2022/04/01 06:38:00;;;;;;;6.70;2.78;;;;;;;5.39;55.46;100597.53;5059684;28;20079;-60
2022/04/01 06:40:30;;;;;;;7.63;3.70;;;;;;;5.39;55.72;100600.19;5052155;28;20049;-60
2022/04/01 06:42:58;;;;;;;3.28;2.60;;;;;;;5.40;55.55;100605.31;5055270;28;20155;-59
2022/04/01 06:45:27;;;;;;;6.50;2.85;;;;;;;5.41;56.21;100614.16;5055368;28;20112;-60
2022/04/01 06:47:54;;;;;;;3.42;2.63;;;;;;;5.42;55.52;100623.78;5054130;28;20111;-60
2022/04/01 06:50:24;;;;;;;5.55;2.83;;;;;;;5.34;55.87;100610.59;5060257;28;20049;-59
2022/04/01 06:52:52;;;;;;;5.15;2.80;;;;;;;5.34;56.17;100623.94;5058429;28;20061;-60
2022/04/01 06:55:22;;;;;;;4.10;2.70;;;;;;;5.33;55.67;100631.09;5054814;28;20064;-60
2022/04/01 06:57:50;;;;;;;4.82;2.75;;;;;;;5.29;55.59;100624.50;5057153;28;20040;-60
2022/04/01 07:00:19;;;;;;;3.90;2.55;;;;;;;5.26;55.53;100637.38;5060084;28;20152;-62
2022/04/01 07:02:48;;;;;;;4.35;2.83;;;;;;;5.28;55.16;100630.03;5064294;28;20146;-59
2022/04/01 07:05:16;;;;;;;4.30;2.67;;;;;;;5.27;55.93;100639.03;5045968;28;20048;-60
2022/04/01 07:07:47;;;;;;;3.55;2.58;;;;;;;5.26;55.43;100646.22;5052126;28;20111;-60
2022/04/01 07:10:15;;;;;;;3.83;2.90;;;;;;;5.26;55.59;100643.53;5054700;28;20122;-58
2022/04/01 07:12:43;;;;;;;4.05;2.97;;;;;;;5.30;55.12;100643.97;5053315;28;20072;-58
2022/04/01 07:15:11;;;;;;;4.43;2.75;;;;;;;5.30;55.33;100642.16;5053559;28;20077;-57
2022/04/01 07:17:39;;;;;;;3.78;2.60;;;;;;;5.32;55.73;100650.75;4704327;28;9999957;-58
2022/04/01 07:20:11;;;;;;;3.53;2.70;;;;;;;5.31;55.35;100656.28;5060213;28;20045;-58
2022/04/01 07:22:49;;;;;;;5.00;2.50;;;;;;;5.29;55.62;100653.00;5047941;28;20477;-58
2022/04/01 07:25:17;;;;;;;4.00;2.80;;;;;;;5.27;55.35;100658.50;5058135;28;20052;-58
2022/04/01 07:27:46;;;;;;;5.35;2.50;;;;;;;5.28;55.49;100662.00;5062820;28;20064;-59
2022/04/01 07:30:14;;;;;;;3.78;2.40;;;;;;;5.27;55.23;100674.50;5062661;28;20049;-58
2022/04/01 07:32:42;;;;;;;3.60;2.30;;;;;;;5.22;55.38;100669.75;5061682;28;20068;-58
2022/04/01 07:35:12;;;;;;;3.15;2.30;;;;;;;5.29;55.47;100675.13;5062886;28;20060;-58
2022/04/01 07:37:41;;;;;;;3.55;2.28;;;;;;;5.31;55.51;100680.28;5062403;28;20045;-58
2022/04/01 07:40:20;;;;;;;3.42;2.45;;;;;;;5.29;55.22;100682.31;5062837;28;20045;-58
2022/04/01 07:42:49;;;;;;;5.60;2.50;;;;;;;5.29;55.52;100684.97;5058210;28;20060;-58
2022/04/01 07:45:17;;;;;;;5.68;2.85;;;;;;;5.32;55.00;100692.56;5062920;28;20045;-58
2022/04/01 07:47:45;;;;;;;4.30;2.78;;;;;;;5.33;54.71;100702.22;5062108;28;20110;-58
2022/04/01 07:50:14;;;;;;;3.90;2.33;;;;;;;5.33;55.38;100702.22;5073323;28;20057;-59
2022/04/01 07:52:43;;;;;;;6.57;2.72;;;;;;;5.33;54.82;100697.72;5061570;28;20087;-58
2022/04/01 07:55:14;;;;;;;3.80;2.42;;;;;;;5.35;55.28;100711.66;5065504;28;20049;-58
2022/04/01 07:57:44;;;;;;;4.88;2.72;;;;;;;5.35;54.89;100713.50;5062230;28;20144;-58
2022/04/01 08:00:16;;;;;;;4.03;2.58;;;;;;;5.32;55.11;100709.38;5067385;28;20139;-58
2022/04/01 08:02:44;;;;;;;4.00;2.40;;;;;;;5.30;54.96;100714.09;5062498;28;20057;-59
2022/04/01 08:05:13;;;;;;;5.93;3.03;;;;;;;5.29;55.43;100714.28;5051703;28;20050;-58
2022/04/01 08:07:41;;;;;;;5.28;2.45;;;;;;;5.29;54.92;100716.94;5047392;28;20051;-58
2022/04/01 08:10:09;;;;;;;3.90;2.25;;;;;;;5.24;55.26;100723.66;5050642;28;20049;-58
2022/04/01 08:12:44;;;;;;;4.45;2.85;;;;;;;5.23;54.87;100722.00;5042344;28;20132;-58
2022/04/01 08:15:12;;;;;;;3.75;2.42;;;;;;;5.26;55.30;100731.47;5043179;28;20076;-58
2022/04/01 08:17:40;;;;;;;7.05;3.55;;;;;;;5.26;55.33;100734.13;5051335;28;20098;-58
2022/04/01 08:20:11;;;;;;;3.50;2.30;;;;;;;5.23;54.79;100737.16;5048131;28;20187;-58
2022/04/01 08:22:39;;;;;;;3.95;2.50;;;;;;;5.26;54.73;100746.63;5042289;28;20050;-58
2022/04/01 08:25:08;;;;;;;3.78;2.40;;;;;;;5.20;55.42;100738.38;5042743;28;20490;-59
2022/04/01 08:27:37;;;;;;;3.53;2.03;;;;;;;5.17;55.14;100746.78;5060628;28;20048;-59
2022/04/01 08:30:07;;;;;;;3.55;2.25;;;;;;;5.19;55.36;100746.59;5065837;28;20116;-58
2022/04/01 08:32:37;;;;;;;4.00;2.60;;;;;;;5.20;55.05;100761.56;5062026;28;20059;-58
2022/04/01 08:35:06;;;;;;;4.15;2.38;;;;;;;5.24;55.25;100758.28;5062110;28;20048;-58
2022/04/01 08:37:34;;;;;;;2.97;2.03;;;;;;;5.25;55.09;100772.44;5062137;28;20076;-58
2022/04/01 08:40:04;;;;;;;5.70;2.30;;;;;;;5.21;55.52;100769.34;5063874;28;20408;-58
2022/04/01 08:42:33;;;;;;;2.95;2.05;;;;;;;5.19;55.61;100782.03;5063027;28;20114;-59
2022/04/01 08:45:09;;;;;;;5.82;2.42;;;;;;;5.18;55.50;100783.06;5066483;28;20118;-59
2022/04/01 08:47:38;;;;;;;5.10;2.50;;;;;;;5.22;55.55;100794.13;5065911;28;20120;-58
2022/04/01 08:50:09;;;;;;;3.63;2.30;;;;;;;5.20;55.02;100786.34;5074825;28;20067;-59
2022/04/01 08:52:37;;;;;;;3.75;2.33;;;;;;;5.26;54.95;100792.75;5065070;28;20060;-59
2022/04/01 08:55:06;;;;;;;5.15;2.13;;;;;;;5.23;54.79;100798.44;5065992;28;20084;-59
2022/04/01 08:57:37;;;;;;;4.63;1.90;;;;;;;5.21;55.06;100795.16;5065663;28;20458;-59
2022/04/01 09:00:37;;;;;;;6.93;2.30;;;;;;;5.19;55.44;100806.03;5066094;28;20075;-59
2022/04/01 09:03:09;;;;;;;3.78;2.20;;;;;;;5.15;55.13;100807.41;5062643;28;20045;-60
2022/04/01 09:05:37;;;;;;;4.07;2.70;;;;;;;5.19;55.04;100811.34;5065708;28;20049;-59
2022/04/01 09:08:07;;;;;;;4.57;2.35;;;;;;;5.18;55.50;100806.22;5064658;28;20124;-59
2022/04/01 09:10:52;;;;;;;5.90;2.03;;;;;;;5.15;55.36;100823.41;5058232;28;20401;-58
2022/04/01 09:13:20;;;;;;;5.93;2.45;;;;;;;5.11;55.47;100813.31;5065022;28;20064;-59
2022/04/01 09:15:48;;;;;;;5.47;2.17;;;;;;;5.10;55.65;100825.78;5065227;28;20056;-59
2022/04/01 09:18:33;;;;;;;4.55;2.00;;;;;;;5.11;55.08;100837.28;5064700;28;20080;-59
2022/04/01 09:21:01;;;;;;;3.90;2.20;;;;;;;5.13;54.91;100837.91;5065788;28;20083;-59
2022/04/01 09:23:30;;;;;;;4.07;2.03;;;;;;;5.12;54.91;100833.59;5064386;28;20052;-59
2022/04/01 09:25:58;;;;;;;4.88;1.98;;;;;;;5.15;55.22;100835.88;5066302;28;20076;-59
2022/04/01 09:28:28;;;;;;;3.80;1.83;;;;;;;5.14;54.91;100842.22;5065721;28;20148;-59
2022/04/01 09:31:02;;;;;;;1.98;1.27;;;;;;;5.10;54.45;100839.13;5063504;28;20080;-59
2022/04/01 09:33:48;;;;;;;3.17;2.15;;;;;;;5.08;54.90;100849.13;5064596;28;20106;-59
2022/04/01 09:36:18;;;;;;;3.88;2.10;;;;;;;5.07;54.77;100849.31;5064765;28;20432;-59
2022/04/01 09:39:01;;;;;;;3.92;2.15;;;;;;;5.00;55.21;100833.25;5064563;28;20097;-58
2022/04/01 09:41:35;;;;;;;4.10;2.22;;;;;;;5.15;55.14;100851.88;5064971;28;20427;-58
2022/04/01 09:44:24;;;;;;;4.35;2.08;;;;;;;5.13;55.09;100852.06;5063683;28;20055;-58
2022/04/01 09:46:56;;;;;;;5.35;2.38;;;;;;;5.12;54.63;100857.56;5064158;28;20095;-58
2022/04/01 09:49:36;;;;;;;3.25;1.90;;;;;;;5.14;54.68;100853.72;5068775;28;20044;-57
2022/04/01 09:52:07;;;;;;;2.70;1.63;;;;;;;5.12;54.44;100855.72;5065882;28;20053;-58
2022/04/01 09:54:42;;;;;;;2.78;1.80;;;;;;;5.12;54.48;100858.41;5064145;28;20104;-58
2022/04/01 09:57:11;;;;;;;3.65;2.08;;;;;;;5.09;54.25;100864.09;5063537;28;20044;-59
2022/04/01 09:59:38;;;;;;;4.03;1.90;;;;;;;5.09;54.28;100855.28;5064795;28;20114;-59
2022/04/01 10:02:06;;;;;;;5.25;1.80;;;;;;;5.06;54.09;100860.97;5064285;28;20084;-57
2022/04/01 10:04:35;;;;;;;3.75;2.20;;;;;;;5.03;54.23;100850.69;5060578;28;20049;-58
2022/04/01 10:07:04;;;;;;;3.35;1.83;;;;;;;5.09;54.76;100861.44;5056572;28;20072;-58
2022/04/01 10:09:32;;;;;;;2.88;1.90;;;;;;;5.17;54.91;100863.16;5063296;28;20053;-58
2022/04/01 10:12:26;;;;;;;3.42;2.00;;;;;;;5.16;54.53;100859.69;5064112;28;20067;-58
2022/04/01 10:14:57;;;;;;;4.10;2.30;;;;;;;5.18;54.11;100860.31;5064927;28;20118;-57
2022/04/01 10:17:30;;;;;;;3.58;1.90;;;;;;;5.24;54.59;100859.53;5062364;28;20048;-58
2022/04/01 10:20:02;;;;;;;3.25;1.90;;;;;;;5.23;53.83;100863.22;5057708;28;20075;-57
2022/04/01 10:22:30;;;;;;;3.88;1.67;;;;;;;5.22;54.31;100858.91;5059581;28;20049;-59
2022/04/01 10:25:03;;;;;;;4.03;1.95;;;;;;;5.19;54.13;100866.47;5044638;28;20076;-57
2022/04/01 10:27:37;;;;;;;2.78;1.70;;;;;;;5.15;53.93;100868.69;5064717;28;20067;-57
2022/04/01 10:30:07;;;;;;;3.30;2.00;;;;;;;5.15;54.43;100866.03;5060195;28;20128;-58
2022/04/01 10:32:39;;;;;;;5.95;2.13;;;;;;;5.19;54.53;100877.13;5062506;28;20148;-56
2022/04/01 10:35:22;;;;;;;5.53;2.00;;;;;;;5.17;54.00;100868.50;5050960;28;20053;-57
2022/04/01 10:37:53;;;;;;;3.75;1.55;;;;;;;5.19;54.68;100875.28;5063131;28;20053;-57
2022/04/01 10:40:21;;;;;;;2.78;1.75;;;;;;;5.14;54.44;100850.22;5062995;28;20041;-57
2022/04/01 10:42:49;;;;;;;3.08;1.73;;;;;;;5.28;53.76;100870.66;5057711;28;20083;-57
2022/04/01 10:45:27;;;;;;;2.28;1.63;;;;;;;5.31;54.30;100875.59;5059591;28;20044;-58
2022/04/01 10:53:41;;;;;;;3.65;1.75;;;;;;;5.31;54.02;100885.44;5059431;28;20107;-57
2022/04/01 10:56:43;;;;;;;2.75;1.75;;;;;;;5.30;54.24;100883.78;5060614;28;20045;-57
2022/04/01 10:59:13;;;;;;;3.58;1.85;;;;;;;5.32;54.26;100881.75;4995149;28;20452;-57
2022/04/01 11:02:02;;;;;;;3.33;2.10;;;;;;;5.32;54.32;100890.59;4998537;28;20484;-57
2022/04/01 11:04:33;;;;;;;5.40;2.00;;;;;;;5.32;54.36;100890.59;4993772;28;20058;-57
2022/04/01 11:07:04;;;;;;;4.15;2.22;;;;;;;5.36;54.21;100897.19;4640128;28;9999973;-58
2022/04/01 11:09:37;;;;;;;3.95;2.05;;;;;;;5.38;54.29;100894.34;4992729;28;20054;-58
2022/04/01 11:12:39;;;;;;;3.30;2.47;;;;;;;5.41;53.97;100899.28;4992258;28;20109;-58
2022/04/01 11:15:12;;;;;;;4.13;2.20;;;;;;;5.35;54.33;100903.53;4985471;28;20078;-57
2022/04/01 11:18:07;;;;;;;6.90;2.15;;;;;;;5.35;54.04;100895.53;4990842;28;20047;-58
2022/04/01 11:20:39;;;;;;;4.00;1.90;;;;;;;5.42;54.23;100908.94;4993726;28;20055;-55
2022/04/01 11:23:10;;;;;;;3.90;1.85;;;;;;;5.39;54.31;100899.50;4995709;28;20591;-57
2022/04/01 11:26:02;;;;;;;5.10;2.35;;;;;;;5.33;54.10;100908.22;4990142;28;20111;-57
2022/04/01 11:28:31;;;;;;;6.50;2.60;;;;;;;5.31;54.31;100912.09;4994818;28;20377;-57
2022/04/01 11:31:15;;;;;;;3.25;1.80;;;;;;;5.22;54.33;100906.88;5037962;28;20045;-56
2022/04/01 11:34:01;;;;;;;5.07;2.45;;;;;;;5.26;54.12;100917.16;5058349;28;20501;-58
2022/04/01 11:36:30;;;;;;;5.60;2.22;;;;;;;5.26;54.80;100922.47;5057631;28;20437;-57
2022/04/01 11:39:00;;;;;;;4.25;2.20;;;;;;;5.20;54.18;100908.88;5055364;28;20136;-58
2022/04/01 11:41:45;;;;;;;4.53;2.42;;;;;;;5.17;54.45;100919.13;5055659;28;20490;-58
2022/04/01 11:44:15;;;;;;;4.97;2.85;;;;;;;5.15;54.63;100924.63;5058309;28;20163;-57
2022/04/01 11:46:50;;;;;;;4.03;2.28;;;;;;;5.18;54.04;100910.09;5057752;28;20148;-57
2022/04/01 11:49:18;;;;;;;4.97;2.67;;;;;;;5.18;53.91;100923.44;5055057;28;20055;-57
2022/04/01 11:51:46;;;;;;;4.38;2.47;;;;;;;5.18;54.50;100908.28;5058891;28;20045;-55
2022/04/01 11:54:16;;;;;;;3.20;2.30;;;;;;;5.15;54.53;100918.47;5052278;28;20076;-57
2022/04/01 11:56:45;;;;;;;6.15;2.90;;;;;;;5.11;54.35;100912.69;5054227;28;20116;-56
2022/04/01 11:59:12;;;;;;;5.25;2.40;;;;;;;5.09;54.57;100917.38;5047366;28;20103;-56
2022/04/01 12:04:35;;;;;;;7.28;3.50;;;;;;;5.12;54.60;100924.16;5089354;27;1259279;-56
2022/04/01 12:09:58;;;;;;;6.45;3.15;;;;;;;5.17;54.11;100925.28;5130269;28;20566;-56